Round Top, Texas
Current Conditions -  °F | °C
As of 7:35 PM on Friday 24 Oct 2014 (Local Time) from K3T5 Reporting Station
Clear Clear  
Wind Chill: 71°   Ceiling: Unl
Heat Index: 71°   Visibility: 10mi
Dew Point: 63°   Wind: 0mph
Humidity: 74%   Direction: NA
Pressure: 30.09"   Gusts: NA
Location:  30.06°N, 96.7°W
Report Text: K3T5 250035Z AUTO 00000KT 10SM CLR 22/17 A3009 RMK AO2 T02190171
Loading
Personal Weather Stations






























Interactive Weather Map
Tropical Storm Tracking
New forecast layout! Learn more

10-Day Weather Forecast

Advertisements
Track Severe Weather on mobile